Swinomish — WC5223 — position and weather

sailwx.info

Track history (hours):
 
Tides and Currents Weather Stations Pressure Air Temp Water Temp Dewpoint Dewpoint Depression Visibility Wind Speed Wind Dir Waves Ship Positions

Swinomish

Owner: DUNLAP TOWING CO, LA CONNER, WA. More information available from US FCC via Universal Licensing System and Coast Guard Vessel Documentation Center.

Last reported at 2017-Mar-26 20:33 UTC. Time now 2017-Mar-26 20:48 UTC.
Position N 48°31' W 122°51'.

Length 15 m; draft 3.5 m.

Type: Tug. MMSI: 366972050.

Date/timePositionNaut miles runAvg speedWind from/ knotsBaromVisibWave heightAir tempDewpointWater temp
2017-Mar-26 20:33N 48°31' W 122°51'0 0.0
2017-Mar-26 19:33N 48°31' W 122°51'0 0.0
2017-Mar-26 18:33N 48°31' W 122°51'0 0.0
2017-Mar-26 17:33N 48°31' W 122°51'0 0.0
2017-Mar-26 16:33N 48°31' W 122°51'0 0.0
2017-Mar-26 15:33N 48°31' W 122°51'0 0.0
2017-Mar-26 14:33N 48°31' W 122°51'0 0.0
2017-Mar-26 13:33N 48°31' W 122°51'0 0.0
2017-Mar-26 12:33N 48°31' W 122°51'0 0.0
2017-Mar-26 11:33N 48°31' W 122°51'0 0.0
2017-Mar-26 10:33N 48°31' W 122°51'0 0.0
2017-Mar-26 09:33N 48°31' W 122°51'0 0.0
2017-Mar-26 08:33N 48°31' W 122°51'0 0.0
2017-Mar-26 07:33N 48°31' W 122°51'0 0.0
2017-Mar-26 06:33N 48°31' W 122°51'0 0.0
2017-Mar-26 05:33N 48°31' W 122°51'0 0.0
2017-Mar-26 04:33N 48°31' W 122°51'0 0.0
2017-Mar-26 03:33N 48°31' W 122°51'0 0.0
2017-Mar-26 02:33N 48°31' W 122°51'0 0.0
2017-Mar-26 01:33N 48°31' W 122°51'0 0.0
2017-Mar-26 00:33N 48°31' W 122°51'0 0.0
2017-Mar-25 23:33N 48°31' W 122°51'0 0.0
2017-Mar-25 22:33N 48°31' W 122°51'0 0.3
2017-Mar-25 21:33N 48°31' W 122°51'1 1.3
2017-Mar-25 20:33N 48°33' W 122°50'1 1.5
2017-Mar-25 19:33N 48°34' W 122°51'2 1.6
2017-Mar-25 18:33N 48°35' W 122°53'2 1.6
2017-Mar-25 17:33N 48°35' W 122°56'2 1.9
2017-Mar-25 16:33N 48°36' W 122°58'2 1.8
2017-Mar-25 15:33N 48°36' W 123°01'2 2.1
2017-Mar-25 14:33N 48°38' W 123°02'2 2.0
2017-Mar-25 13:33N 48°40' W 123°01'2 2.1
2017-Mar-25 12:33N 48°41' W 122°59'2 1.6
2017-Mar-25 11:33N 48°43' W 122°59'1 1.4
2017-Mar-25 10:33N 48°44' W 122°60'2 2.1
2017-Mar-25 09:33N 48°44' W 123°03'3 3.2
2017-Mar-25 08:33N 48°44' W 123°08'2 2.0
2017-Mar-25 07:33N 48°45' W 123°11'1 1.5
2017-Mar-25 06:33N 48°46' W 123°12'2 1.7
2017-Mar-25 05:33N 48°48' W 123°13'1 0.6
2017-Mar-25 04:33N 48°48' W 123°13'0 0.0
2017-Mar-25 03:33N 48°48' W 123°13'0 0.0
2017-Mar-25 02:34N 48°48' W 123°13'0 0.0
2017-Mar-25 01:34N 48°48' W 123°13'0 0.0
2017-Mar-25 00:33N 48°48' W 123°13'0 0.0
2017-Mar-24 23:34N 48°48' W 123°13'0 0.0
2017-Mar-24 22:33N 48°48' W 123°13'0 0.0
2017-Mar-24 21:34N 48°48' W 123°13'0 0.0
2017-Mar-24 20:34N 48°48' W 123°13'0 0.0
2017-Mar-24 19:33N 48°48' W 123°13'0 0.0
2017-Mar-24 18:34N 48°48' W 123°13'0 0.0
2017-Mar-24 17:33N 48°48' W 123°13'0 0.0
2017-Mar-24 16:33N 48°48' W 123°13'0 0.0
2017-Mar-24 15:33N 48°48' W 123°13'0 0.0
2017-Mar-24 14:33N 48°48' W 123°13'0 0.0
2017-Mar-24 13:34N 48°48' W 123°13'0 0.0
2017-Mar-24 12:33N 48°48' W 123°13'0 0.0
2017-Mar-24 11:33N 48°48' W 123°13'0 0.0
2017-Mar-24 10:33N 48°48' W 123°13'0 0.0
2017-Mar-24 09:33N 48°48' W 123°13'0 0.0
2017-Mar-24 08:32N 48°48' W 123°13'0 0.0
2017-Mar-24 07:33N 48°48' W 123°13'0 0.0
2017-Mar-24 06:33N 48°48' W 123°13'0 0.0
2017-Mar-24 05:33N 48°48' W 123°13'0 0.0
2017-Mar-24 04:33N 48°48' W 123°13'0 0.0
2017-Mar-24 03:33N 48°48' W 123°13'0 0.0
2017-Mar-24 02:33N 48°48' W 123°13'0 0.0
2017-Mar-24 01:33N 48°48' W 123°13'0 0.0
2017-Mar-24 00:33N 48°48' W 123°13'0 0.0
2017-Mar-23 23:33N 48°48' W 123°13'0 0.0
2017-Mar-23 22:33N 48°48' W 123°13'0 0.0
2017-Mar-23 21:33N 48°48' W 123°13'0 0.0
2017-Mar-23 20:32N 48°48' W 123°13'0 0.0
2017-Mar-23 19:32N 48°48' W 123°13'0 0.0
2017-Mar-23 18:33N 48°48' W 123°13'0 0.0
2017-Mar-23 17:33N 48°48' W 123°13'0 0.0
2017-Mar-23 16:33N 48°48' W 123°13'0 0.0
2017-Mar-23 15:33N 48°48' W 123°13'0 0.0
2017-Mar-23 14:33N 48°48' W 123°13'0 0.0
2017-Mar-23 13:33N 48°48' W 123°13'0 0.0
2017-Mar-23 12:33N 48°48' W 123°13'0 0.0
2017-Mar-23 11:33N 48°48' W 123°13'0 0.0
2017-Mar-23 10:33N 48°48' W 123°13'0 0.0
2017-Mar-23 09:33N 48°48' W 123°13'0 0.0
2017-Mar-23 08:33N 48°48' W 123°13'0 0.0
2017-Mar-23 07:33N 48°48' W 123°13'0 0.0
2017-Mar-23 06:33N 48°48' W 123°13'0 0.0
2017-Mar-23 05:33N 48°48' W 123°13'0 0.0
2017-Mar-23 04:33N 48°48' W 123°13'0 0.0
2017-Mar-23 03:33N 48°48' W 123°13'0 0.0
2017-Mar-23 02:33N 48°48' W 123°13'0 0.0
2017-Mar-23 01:33N 48°48' W 123°13'0 0.0
2017-Mar-23 00:33N 48°48' W 123°13'0 0.0
2017-Mar-22 23:33N 48°48' W 123°13'0 0.0
2017-Mar-22 22:33N 48°48' W 123°13'0 0.0
2017-Mar-22 21:33N 48°48' W 123°13'0 0.0
2017-Mar-22 20:33N 48°48' W 123°13'0 0.0
2017-Mar-22 19:33N 48°48' W 123°13'0 0.0
2017-Mar-22 18:33N 48°48' W 123°13'0 0.0
2017-Mar-22 17:33N 48°48' W 123°13'0 0.0
2017-Mar-22 16:33N 48°48' W 123°13'0 0.0
2017-Mar-22 15:33N 48°48' W 123°13'0 0.1
2017-Mar-22 14:33N 48°48' W 123°13'0 0.1
2017-Mar-22 13:33N 48°48' W 123°13'0 0.0
2017-Mar-22 12:33N 48°48' W 123°13'0 0.0
2017-Mar-22 11:33N 48°48' W 123°13'0 0.0
2017-Mar-22 10:33N 48°48' W 123°13'0 0.0
2017-Mar-22 09:33N 48°48' W 123°13'0 0.0
2017-Mar-22 08:33N 48°48' W 123°13'0 0.0
2017-Mar-22 07:33N 48°48' W 123°13'0 0.0
2017-Mar-22 06:33N 48°48' W 123°13'0 0.0
2017-Mar-22 05:33N 48°48' W 123°13'0 0.0
2017-Mar-22 04:33N 48°48' W 123°13'0 0.0
2017-Mar-22 03:33N 48°48' W 123°13'0 0.0
2017-Mar-22 02:33N 48°48' W 123°13'0 0.0
2017-Mar-22 01:33N 48°48' W 123°13'0 0.0
2017-Mar-22 00:33N 48°48' W 123°13'0 0.1
2017-Mar-21 23:33N 48°48' W 123°13'0 0.0
2017-Mar-21 22:33N 48°48' W 123°13'0 0.0
2017-Mar-21 21:33N 48°48' W 123°13'0 0.0
2017-Mar-21 20:33N 48°48' W 123°13'0 0.1
2017-Mar-21 19:33N 48°48' W 123°13'0 0.0
2017-Mar-21 18:31N 48°48' W 123°13'0 0.0
2017-Mar-21 17:33N 48°48' W 123°13'0 0.1
2017-Mar-21 16:33N 48°48' W 123°13'1 0.6
2017-Mar-21 15:33N 48°48' W 123°13'2 1.7
2017-Mar-21 14:33N 48°49' W 123°16'2 1.8
2017-Mar-21 13:28N 48°50' W 123°19'2 2.4
2017-Mar-21 12:33N 48°51' W 123°22'1 1.4
2017-Mar-21 11:33N 48°51' W 123°24'2 1.7
2017-Mar-21 10:33N 48°52' W 123°26'2 2.0
2017-Mar-21 09:33N 48°54' W 123°28'2 2.1
2017-Mar-21 08:33N 48°55' W 123°30'2 1.9
2017-Mar-21 07:33N 48°57' W 123°32'2 1.7
2017-Mar-21 06:32N 48°58' W 123°34'2 1.7
2017-Mar-21 05:32N 48°59' W 123°36'2 1.6
2017-Mar-21 04:33N 49°00' W 123°37'2 1.8
2017-Mar-21 03:33N 49°02' W 123°39'1 1.5
2017-Mar-21 02:33N 49°03' W 123°40'2 2.0
2017-Mar-21 01:33N 49°05' W 123°41'2 2.0
2017-Mar-21 00:33N 49°07' W 123°43'0 0.1
2017-Mar-20 23:19N 49°07' W 123°42'0 0.1
2017-Mar-20 22:33N 49°07' W 123°43'0 0.1
2017-Mar-20 21:32N 49°07' W 123°43'2 1.7
2017-Mar-20 20:33N 49°05' W 123°44'2 2.3
2017-Mar-20 19:33N 49°03' W 123°44'2 2.2
2017-Mar-20 18:33N 49°01' W 123°44'2 2.1
2017-Mar-20 17:32N 48°58' W 123°43'2 2.1
2017-Mar-20 16:33N 48°57' W 123°42'2 1.7
2017-Mar-20 15:33N 48°55' W 123°41'0 0.1
2017-Mar-20 14:30N 48°55' W 123°42'0 0.0
2017-Mar-20 13:33N 48°55' W 123°42'7 7.1
2017-Mar-20 12:33N 48°55' W 123°31'1111.1
2017-Mar-20 11:32N 48°49' W 123°16'1111.4
2017-Mar-20 10:33N 48°45' W 123°00'1110.9
2017-Mar-20 09:33N 48°41' W 122°45'1110.6
2017-Mar-20 08:33N 48°33' W 122°34'8 8.2
2017-Mar-20 07:32N 48°25' W 122°30'2 0.3
2017-Mar-20 02:07N 48°23' W 122°30'3 4.5
2017-Mar-20 01:30N 48°22' W 122°34'3 2.2
2017-Mar-20 00:12N 48°25' W 122°34'0 0.0
2017-Mar-19 22:17N 48°25' W 122°34'5 6.9
2017-Mar-19 21:32N 48°24' W 122°42'1110.9
2017-Mar-19 20:29N 48°13' W 122°47'7 6.5
2017-Mar-19 19:23N 48°06' W 122°47'5 5.3
2017-Mar-19 18:22N 48°03' W 122°40'7 8.5
2017-Mar-19 17:33N 47°58' W 122°33'8 7.8
2017-Mar-19 16:33N 47°53' W 122°24'8 7.5
2017-Mar-19 15:33N 47°58' W 122°16'2 2.3
2017-Mar-19 14:33N 47°57' W 122°19'1110.7
2017-Mar-19 13:33N 47°47' W 122°25'1111.4
2017-Mar-19 12:34N 47°36' W 122°26'1211.7
2017-Mar-19 11:33N 47°25' W 122°32'1211.6
2017-Mar-19 10:33N 47°13' W 122°35'4 0.3
2017-Mar-18 22:33N 47°11' W 122°39'2 1.3
2017-Mar-18 21:20N 47°12' W 122°38'1 0.8
2017-Mar-18 19:29N 47°13' W 122°39'1 0.9
2017-Mar-18 18:17N 47°14' W 122°40'1 0.8
2017-Mar-18 17:30N 47°14' W 122°40'2 0.7
2017-Mar-18 14:16N 47°13' W 122°38'2 2.3
2017-Mar-18 13:33N 47°13' W 122°35'3 3.2
2017-Mar-18 12:33N 47°16' W 122°33'2 2.2
2017-Mar-18 11:33N 47°18' W 122°33'1 1.2
2017-Mar-18 10:33N 47°19' W 122°32'2 1.5
2017-Mar-18 09:33N 47°18' W 122°30'0 0.5
2017-Mar-18 08:33N 47°18' W 122°30'1 0.9
2017-Mar-18 07:33N 47°19' W 122°29'2 1.7
2017-Mar-18 06:33N 47°20' W 122°27'2 1.5
2017-Mar-18 05:33N 47°21' W 122°26'2 1.6
2017-Mar-18 04:33N 47°22' W 122°24'2 1.7
2017-Mar-18 03:33N 47°23' W 122°22'2 1.9
2017-Mar-18 02:33N 47°25' W 122°24'2 2.0
2017-Mar-18 01:33N 47°27' W 122°25'2 1.9
2017-Mar-18 00:33N 47°29' W 122°26'2 1.9
2017-Mar-17 23:33N 47°30' W 122°27'2 1.6
2017-Mar-17 22:33N 47°32' W 122°28'2 1.9
2017-Mar-17 21:33N 47°34' W 122°28'2 1.9
2017-Mar-17 20:33N 47°36' W 122°28'2 1.6
2017-Mar-17 19:33N 47°37' W 122°29'1 1.2
2017-Mar-17 18:33N 47°38' W 122°29'1 1.2
2017-Mar-17 17:34N 47°40' W 122°29'1 1.2
2017-Mar-17 16:33N 47°41' W 122°29'1 1.5
2017-Mar-17 15:33N 47°42' W 122°28'2 1.6
2017-Mar-17 14:34N 47°44' W 122°28'2 2.0
2017-Mar-17 13:33N 47°46' W 122°28'2 1.6
2017-Mar-17 12:33N 47°47' W 122°26'1 1.3
2017-Mar-17 11:33N 47°48' W 122°25'1 1.2
2017-Mar-17 10:33N 47°49' W 122°24'1 1.3
2017-Mar-17 09:33N 47°50' W 122°23'2 2.1
2017-Mar-17 08:33N 47°52' W 122°21'3 2.9
2017-Mar-17 07:34N 47°55' W 122°20'3 2.8
2017-Mar-17 06:34N 47°58' W 122°19'3 2.5
2017-Mar-17 05:30N 47°58' W 122°15'1 1.1
2017-Mar-17 04:33N 47°59' W 122°14'0 0.3
2017-Mar-17 03:33N 47°59' W 122°13'0 0.0
2017-Mar-17 02:33N 47°59' W 122°13'0 0.0
2017-Mar-17 01:33N 47°59' W 122°13'0 0.0
2017-Mar-17 00:33N 47°59' W 122°13'0 0.0
2017-Mar-16 23:33N 47°59' W 122°13'0 0.0
2017-Mar-16 22:33N 47°59' W 122°13'0 0.0
2017-Mar-16 21:33N 47°59' W 122°13'0 0.0
2017-Mar-16 20:33N 47°59' W 122°13'  
Track history (hours):
 
Tides and Currents Weather Stations Pressure Air Temp Water Temp Dewpoint Dewpoint Depression Visibility Wind Speed Wind Dir Waves Ship Positions

Swinomish

Owner: DUNLAP TOWING CO, LA CONNER, WA. More information available from US FCC via Universal Licensing System and Coast Guard Vessel Documentation Center.

Last reported at 2017-Mar-26 20:33 UTC. Time now 2017-Mar-26 20:48 UTC.
Position N 48°31' W 122°51'.

Length 15 m; draft 3.5 m.

Type: Tug. MMSI: 366972050.

Date/timePositionNaut miles runAvg speedWind from/ knotsBaromVisibWave heightAir tempDewpointWater temp
2017-Mar-26 20:33N 48°31' W 122°51'0 0.0
2017-Mar-26 19:33N 48°31' W 122°51'0 0.0
2017-Mar-26 18:33N 48°31' W 122°51'0 0.0
2017-Mar-26 17:33N 48°31' W 122°51'0 0.0
2017-Mar-26 16:33N 48°31' W 122°51'0 0.0
2017-Mar-26 15:33N 48°31' W 122°51'0 0.0
2017-Mar-26 14:33N 48°31' W 122°51'0 0.0
2017-Mar-26 13:33N 48°31' W 122°51'0 0.0
2017-Mar-26 12:33N 48°31' W 122°51'0 0.0
2017-Mar-26 11:33N 48°31' W 122°51'0 0.0
2017-Mar-26 10:33N 48°31' W 122°51'0 0.0
2017-Mar-26 09:33N 48°31' W 122°51'0 0.0
2017-Mar-26 08:33N 48°31' W 122°51'0 0.0
2017-Mar-26 07:33N 48°31' W 122°51'0 0.0
2017-Mar-26 06:33N 48°31' W 122°51'0 0.0
2017-Mar-26 05:33N 48°31' W 122°51'0 0.0
2017-Mar-26 04:33N 48°31' W 122°51'0 0.0
2017-Mar-26 03:33N 48°31' W 122°51'0 0.0
2017-Mar-26 02:33N 48°31' W 122°51'0 0.0
2017-Mar-26 01:33N 48°31' W 122°51'0 0.0
2017-Mar-26 00:33N 48°31' W 122°51'0 0.0
2017-Mar-25 23:33N 48°31' W 122°51'0 0.0
2017-Mar-25 22:33N 48°31' W 122°51'0 0.3
2017-Mar-25 21:33N 48°31' W 122°51'1 1.3
2017-Mar-25 20:33N 48°33' W 122°50'1 1.5
2017-Mar-25 19:33N 48°34' W 122°51'2 1.6
2017-Mar-25 18:33N 48°35' W 122°53'2 1.6
2017-Mar-25 17:33N 48°35' W 122°56'2 1.9
2017-Mar-25 16:33N 48°36' W 122°58'2 1.8
2017-Mar-25 15:33N 48°36' W 123°01'2 2.1
2017-Mar-25 14:33N 48°38' W 123°02'2 2.0
2017-Mar-25 13:33N 48°40' W 123°01'2 2.1
2017-Mar-25 12:33N 48°41' W 122°59'2 1.6
2017-Mar-25 11:33N 48°43' W 122°59'1 1.4
2017-Mar-25 10:33N 48°44' W 122°60'2 2.1
2017-Mar-25 09:33N 48°44' W 123°03'3 3.2
2017-Mar-25 08:33N 48°44' W 123°08'2 2.0
2017-Mar-25 07:33N 48°45' W 123°11'1 1.5
2017-Mar-25 06:33N 48°46' W 123°12'2 1.7
2017-Mar-25 05:33N 48°48' W 123°13'1 0.6
2017-Mar-25 04:33N 48°48' W 123°13'0 0.0
2017-Mar-25 03:33N 48°48' W 123°13'0 0.0
2017-Mar-25 02:34N 48°48' W 123°13'0 0.0
2017-Mar-25 01:34N 48°48' W 123°13'0 0.0
2017-Mar-25 00:33N 48°48' W 123°13'0 0.0
2017-Mar-24 23:34N 48°48' W 123°13'0 0.0
2017-Mar-24 22:33N 48°48' W 123°13'0 0.0
2017-Mar-24 21:34N 48°48' W 123°13'0 0.0
2017-Mar-24 20:34N 48°48' W 123°13'0 0.0
2017-Mar-24 19:33N 48°48' W 123°13'0 0.0
2017-Mar-24 18:34N 48°48' W 123°13'0 0.0
2017-Mar-24 17:33N 48°48' W 123°13'0 0.0
2017-Mar-24 16:33N 48°48' W 123°13'0 0.0
2017-Mar-24 15:33N 48°48' W 123°13'0 0.0
2017-Mar-24 14:33N 48°48' W 123°13'0 0.0
2017-Mar-24 13:34N 48°48' W 123°13'0 0.0
2017-Mar-24 12:33N 48°48' W 123°13'0 0.0
2017-Mar-24 11:33N 48°48' W 123°13'0 0.0
2017-Mar-24 10:33N 48°48' W 123°13'0 0.0
2017-Mar-24 09:33N 48°48' W 123°13'0 0.0
2017-Mar-24 08:32N 48°48' W 123°13'0 0.0
2017-Mar-24 07:33N 48°48' W 123°13'0 0.0
2017-Mar-24 06:33N 48°48' W 123°13'0 0.0
2017-Mar-24 05:33N 48°48' W 123°13'0 0.0
2017-Mar-24 04:33N 48°48' W 123°13'0 0.0
2017-Mar-24 03:33N 48°48' W 123°13'0 0.0
2017-Mar-24 02:33N 48°48' W 123°13'0 0.0
2017-Mar-24 01:33N 48°48' W 123°13'0 0.0
2017-Mar-24 00:33N 48°48' W 123°13'0 0.0
2017-Mar-23 23:33N 48°48' W 123°13'0 0.0
2017-Mar-23 22:33N 48°48' W 123°13'0 0.0
2017-Mar-23 21:33N 48°48' W 123°13'0 0.0
2017-Mar-23 20:32N 48°48' W 123°13'0 0.0
2017-Mar-23 19:32N 48°48' W 123°13'0 0.0
2017-Mar-23 18:33N 48°48' W 123°13'0 0.0
2017-Mar-23 17:33N 48°48' W 123°13'0 0.0
2017-Mar-23 16:33N 48°48' W 123°13'0 0.0
2017-Mar-23 15:33N 48°48' W 123°13'0 0.0
2017-Mar-23 14:33N 48°48' W 123°13'0 0.0
2017-Mar-23 13:33N 48°48' W 123°13'0 0.0
2017-Mar-23 12:33N 48°48' W 123°13'0 0.0
2017-Mar-23 11:33N 48°48' W 123°13'0 0.0
2017-Mar-23 10:33N 48°48' W 123°13'0 0.0
2017-Mar-23 09:33N 48°48' W 123°13'0 0.0
2017-Mar-23 08:33N 48°48' W 123°13'0 0.0
2017-Mar-23 07:33N 48°48' W 123°13'0 0.0
2017-Mar-23 06:33N 48°48' W 123°13'0 0.0
2017-Mar-23 05:33N 48°48' W 123°13'0 0.0
2017-Mar-23 04:33N 48°48' W 123°13'0 0.0
2017-Mar-23 03:33N 48°48' W 123°13'0 0.0
2017-Mar-23 02:33N 48°48' W 123°13'0 0.0
2017-Mar-23 01:33N 48°48' W 123°13'0 0.0
2017-Mar-23 00:33N 48°48' W 123°13'0 0.0
2017-Mar-22 23:33N 48°48' W 123°13'0 0.0
2017-Mar-22 22:33N 48°48' W 123°13'0 0.0
2017-Mar-22 21:33N 48°48' W 123°13'0 0.0
2017-Mar-22 20:33N 48°48' W 123°13'0 0.0
2017-Mar-22 19:33N 48°48' W 123°13'0 0.0
2017-Mar-22 18:33N 48°48' W 123°13'0 0.0
2017-Mar-22 17:33N 48°48' W 123°13'0 0.0
2017-Mar-22 16:33N 48°48' W 123°13'0 0.0
2017-Mar-22 15:33N 48°48' W 123°13'0 0.1
2017-Mar-22 14:33N 48°48' W 123°13'0 0.1
2017-Mar-22 13:33N 48°48' W 123°13'0 0.0
2017-Mar-22 12:33N 48°48' W 123°13'0 0.0
2017-Mar-22 11:33N 48°48' W 123°13'0 0.0
2017-Mar-22 10:33N 48°48' W 123°13'0 0.0
2017-Mar-22 09:33N 48°48' W 123°13'0 0.0
2017-Mar-22 08:33N 48°48' W 123°13'0 0.0
2017-Mar-22 07:33N 48°48' W 123°13'0 0.0
2017-Mar-22 06:33N 48°48' W 123°13'0 0.0
2017-Mar-22 05:33N 48°48' W 123°13'0 0.0
2017-Mar-22 04:33N 48°48' W 123°13'0 0.0
2017-Mar-22 03:33N 48°48' W 123°13'0 0.0
2017-Mar-22 02:33N 48°48' W 123°13'0 0.0
2017-Mar-22 01:33N 48°48' W 123°13'0 0.0
2017-Mar-22 00:33N 48°48' W 123°13'0 0.1
2017-Mar-21 23:33N 48°48' W 123°13'0 0.0
2017-Mar-21 22:33N 48°48' W 123°13'0 0.0
2017-Mar-21 21:33N 48°48' W 123°13'0 0.0
2017-Mar-21 20:33N 48°48' W 123°13'0 0.1
2017-Mar-21 19:33N 48°48' W 123°13'0 0.0
2017-Mar-21 18:31N 48°48' W 123°13'0 0.0
2017-Mar-21 17:33N 48°48' W 123°13'0 0.1
2017-Mar-21 16:33N 48°48' W 123°13'1 0.6
2017-Mar-21 15:33N 48°48' W 123°13'2 1.7
2017-Mar-21 14:33N 48°49' W 123°16'2 1.8
2017-Mar-21 13:28N 48°50' W 123°19'2 2.4
2017-Mar-21 12:33N 48°51' W 123°22'1 1.4
2017-Mar-21 11:33N 48°51' W 123°24'2 1.7
2017-Mar-21 10:33N 48°52' W 123°26'2 2.0
2017-Mar-21 09:33N 48°54' W 123°28'2 2.1
2017-Mar-21 08:33N 48°55' W 123°30'2 1.9
2017-Mar-21 07:33N 48°57' W 123°32'2 1.7
2017-Mar-21 06:32N 48°58' W 123°34'2 1.7
2017-Mar-21 05:32N 48°59' W 123°36'2 1.6
2017-Mar-21 04:33N 49°00' W 123°37'2 1.8
2017-Mar-21 03:33N 49°02' W 123°39'1 1.5
2017-Mar-21 02:33N 49°03' W 123°40'2 2.0
2017-Mar-21 01:33N 49°05' W 123°41'2 2.0
2017-Mar-21 00:33N 49°07' W 123°43'0 0.1
2017-Mar-20 23:19N 49°07' W 123°42'0 0.1
2017-Mar-20 22:33N 49°07' W 123°43'0 0.1
2017-Mar-20 21:32N 49°07' W 123°43'2 1.7
2017-Mar-20 20:33N 49°05' W 123°44'2 2.3
2017-Mar-20 19:33N 49°03' W 123°44'2 2.2
2017-Mar-20 18:33N 49°01' W 123°44'2 2.1
2017-Mar-20 17:32N 48°58' W 123°43'2 2.1
2017-Mar-20 16:33N 48°57' W 123°42'2 1.7
2017-Mar-20 15:33N 48°55' W 123°41'0 0.1
2017-Mar-20 14:30N 48°55' W 123°42'0 0.0
2017-Mar-20 13:33N 48°55' W 123°42'7 7.1
2017-Mar-20 12:33N 48°55' W 123°31'1111.1
2017-Mar-20 11:32N 48°49' W 123°16'1111.4
2017-Mar-20 10:33N 48°45' W 123°00'1110.9
2017-Mar-20 09:33N 48°41' W 122°45'1110.6
2017-Mar-20 08:33N 48°33' W 122°34'8 8.2
2017-Mar-20 07:32N 48°25' W 122°30'2 0.3
2017-Mar-20 02:07N 48°23' W 122°30'3 4.5
2017-Mar-20 01:30N 48°22' W 122°34'3 2.2
2017-Mar-20 00:12N 48°25' W 122°34'0 0.0
2017-Mar-19 22:17N 48°25' W 122°34'5 6.9
2017-Mar-19 21:32N 48°24' W 122°42'1110.9
2017-Mar-19 20:29N 48°13' W 122°47'7 6.5
2017-Mar-19 19:23N 48°06' W 122°47'5 5.3
2017-Mar-19 18:22N 48°03' W 122°40'7 8.5
2017-Mar-19 17:33N 47°58' W 122°33'8 7.8
2017-Mar-19 16:33N 47°53' W 122°24'8 7.5
2017-Mar-19 15:33N 47°58' W 122°16'2 2.3
2017-Mar-19 14:33N 47°57' W 122°19'1110.7
2017-Mar-19 13:33N 47°47' W 122°25'1111.4
2017-Mar-19 12:34N 47°36' W 122°26'1211.7
2017-Mar-19 11:33N 47°25' W 122°32'1211.6
2017-Mar-19 10:33N 47°13' W 122°35'4 0.3
2017-Mar-18 22:33N 47°11' W 122°39'2 1.3
2017-Mar-18 21:20N 47°12' W 122°38'1 0.8
2017-Mar-18 19:29N 47°13' W 122°39'1 0.9
2017-Mar-18 18:17N 47°14' W 122°40'1 0.8
2017-Mar-18 17:30N 47°14' W 122°40'2 0.7
2017-Mar-18 14:16N 47°13' W 122°38'2 2.3
2017-Mar-18 13:33N 47°13' W 122°35'3 3.2
2017-Mar-18 12:33N 47°16' W 122°33'2 2.2
2017-Mar-18 11:33N 47°18' W 122°33'1 1.2
2017-Mar-18 10:33N 47°19' W 122°32'2 1.5
2017-Mar-18 09:33N 47°18' W 122°30'0 0.5
2017-Mar-18 08:33N 47°18' W 122°30'1 0.9
2017-Mar-18 07:33N 47°19' W 122°29'2 1.7
2017-Mar-18 06:33N 47°20' W 122°27'2 1.5
2017-Mar-18 05:33N 47°21' W 122°26'2 1.6
2017-Mar-18 04:33N 47°22' W 122°24'2 1.7
2017-Mar-18 03:33N 47°23' W 122°22'2 1.9
2017-Mar-18 02:33N 47°25' W 122°24'2 2.0
2017-Mar-18 01:33N 47°27' W 122°25'2 1.9
2017-Mar-18 00:33N 47°29' W 122°26'2 1.9
2017-Mar-17 23:33N 47°30' W 122°27'2 1.6
2017-Mar-17 22:33N 47°32' W 122°28'2 1.9
2017-Mar-17 21:33N 47°34' W 122°28'2 1.9
2017-Mar-17 20:33N 47°36' W 122°28'2 1.6
2017-Mar-17 19:33N 47°37' W 122°29'1 1.2
2017-Mar-17 18:33N 47°38' W 122°29'1 1.2
2017-Mar-17 17:34N 47°40' W 122°29'1 1.2
2017-Mar-17 16:33N 47°41' W 122°29'1 1.5
2017-Mar-17 15:33N 47°42' W 122°28'2 1.6
2017-Mar-17 14:34N 47°44' W 122°28'2 2.0
2017-Mar-17 13:33N 47°46' W 122°28'2 1.6
2017-Mar-17 12:33N 47°47' W 122°26'1 1.3
2017-Mar-17 11:33N 47°48' W 122°25'1 1.2
2017-Mar-17 10:33N 47°49' W 122°24'1 1.3
2017-Mar-17 09:33N 47°50' W 122°23'2 2.1
2017-Mar-17 08:33N 47°52' W 122°21'3 2.9
2017-Mar-17 07:34N 47°55' W 122°20'3 2.8
2017-Mar-17 06:34N 47°58' W 122°19'3 2.5
2017-Mar-17 05:30N 47°58' W 122°15'1 1.1
2017-Mar-17 04:33N 47°59' W 122°14'0 0.3
2017-Mar-17 03:33N 47°59' W 122°13'0 0.0
2017-Mar-17 02:33N 47°59' W 122°13'0 0.0
2017-Mar-17 01:33N 47°59' W 122°13'0 0.0
2017-Mar-17 00:33N 47°59' W 122°13'0 0.0
2017-Mar-16 23:33N 47°59' W 122°13'0 0.0
2017-Mar-16 22:33N 47°59' W 122°13'0 0.0
2017-Mar-16 21:33N 47°59' W 122°13'0 0.0
2017-Mar-16 20:33N 47°59' W 122°13'  

Dump ship's entire track history